map of PEK home
PEK - Airport
Location
City:  Beijing, Beijing, China
Near (Alt.):Peking
Name:Capital Airport
ICAO:ZBAA
IATA:PEK

Details
Type:Airport (Aerodrome, Airfield)
Use:Public/Civil, International (customs port of entry)
Latitude:4004'N (40.073)
Longitude:11636'E (116.598)
Elevation:115 ft (35 m)
Variation:6.93W (WMM2015 magnetic declination)
-0.06 annual change
Runways:3
Longest:12467 × 197 ft (3800 × 60 m), paved

Time
Time Zone:UTC+8
Local Time:

Weather
METAR:ZBAA 240400Z 36002MPS 300V020 CAVOK 28/24 Q1005 NOSIG
TAF:ZBAA 240320Z 2406/2506 12004MPS 6000 NSC TX30/2407Z TN22/2421Z= TAF ZGGG 240300Z 2406/2506 12003MPS 8000 BKN033 TX32/2407Z TN26/2422Z
TEMPO 2406/2412 2500 TSRA SCT011 SCT030CB BKN030

Related Locations
Nearby:
Farthest:CPG: 12378 mi / 19920 km
Carmen de Patagones, B, AR

Find:

   beyond  
but within

Other Information
Maps:
NOTAMs:
Links:
Sources:

  
flag of China   

Airport Diagram

Airport diagram for PEK

Airport diagram PDF

Sectional Chart

Flight Planning
at skyvector.com

Satellite Image

Google Maps Satellite view

 

Copyright © 2004-2017 Karl L. Swartz. All rights reserved.
The Great Circle Mapper name and logo are trademarks of the Great Circle Mapper.
All other trademarks mentioned herein belong to their respective owners.
Please see credits for attibutions and further copyright information.

  Follow gcmap on Facebook Follow gcmap on Twitter Follow gcmap on Google+ GCmap on LinkedIn

hCard Microformat

Geo Microformat